Terminal Aerodrome Forecast
Issued by NWS Mobile, AL

Home | Current Version | Previous Version | Text Only | Print | Product List | Glossary On
Versions: 1 2 3 4 5 6 7 8 9 10 11 12 13 14 15 16 17 18 19 20 21 22 23 24 25 26 27 28
000
FTUS44 KMOB 240520
TAFPNS
TAF
KPNS 240520Z 2406/2506 23010KT P6SM VCSH SCT050 SCT250
     FM240900 25010KT 5SM BR VCTS SCT025CB SCT250
      TEMPO 2409/2413 2SM TSRA BR OVC015CB
     FM241500 29011KT P6SM VCSH SCT025 BKN050=

USA.gov is the U.S. government's official web portal to all federal, state and local government web resources and services.